LiveATC.Net - Listen to live air traffic control over the Internet! Contact LiveATC.net for advertising information


ICAO: MMMD  IATA: MID   Airport: Licenciado Manuel Crescencio Rejon International Airport
City: Merida
Country: Mexico   Continent: North America
MMMD METAR Weather: MMMD 152347Z 16008KT 6SM SCT020CB BKN060 OVC300 26/22 A2998 RMK SLP147 52007 901 8/363 OCNL DROPS
MMMD Flight Activity (FlightAware)
MMMD Tower/Approach
Feed Status: DOWN
Last heard on: 2014-09-11 17:04:04 (4 days 7 hours 50 minutes ago)
MMMD Tower/Approach Audio Archives
FacilityFrequency
Merida Approach121.200
Merida Tower118.300


NOTICE

Unauthorized use prohibited. See LiveATC.net Terms of Service


Find LiveATC Audio Streams


Airport/ARTCC Code

Frequency
(e.g., 124.400, 128.75)
Site-wide search

Browse LiveATC Feeds
LiveATC Coverage Map
Top 50 LiveATC Feeds
Bad Weather Areas

LiveATC FAQ
Offer a LiveATC Feed
Contact LiveATC.net
Press Inquiries

LiveATC on iPhone
LiveATC on Android

LiveATC Mobile
(Mobile browser)

ATC Audio Archives
Interesting Recordings

LiveATC Forums


Home Page
About LiveATC.net
Make a Donation
LiveATC Bookstore

Terms of Use
Privacy Policy

ATC/Radar Sites
U.S. ARTCC Freqs
Canadian Air Freqs

AIRMETs/SIGMETs

FAA Airport Status
Nat'l Airspace Status
Arrival Demand Charts


Server Software By:
Icecast.org
Liquidsoap

Please make a donation to help us keep growing!